Time;durP1;ratioP1;P1;durP2;ratioP2;P2;SDS_P1;SDS_P2;PMS_P1;PMS_P2;Temp;Humidity;BMP_temperature;BMP_pressure;BME280_temperature;BME280_humidity;BME280_pressure;Samples;Min_cycle;Max_cycle;Signal;HPM_P1;HPM_P2
2021/12/18 00:02:46;;;;;;;22.60;9.63;;;;;8.60;103363.00;;;;4990466;28;20290;-71
2021/12/18 00:05:32;;;;;;;22.07;9.20;;;;;8.60;103377.00;;;;5001451;28;20310;-70
2021/12/18 00:08:19;;;;;;;18.43;8.87;;;;;8.60;103367.00;;;;5040538;28;20217;-72
2021/12/18 00:11:06;;;;;;;19.17;8.77;;;;;8.60;103366.00;;;;5030171;28;20242;-71
2021/12/18 00:13:53;;;;;;;16.57;8.47;;;;;8.60;103364.00;;;;5023481;28;20235;-70
2021/12/18 00:16:40;;;;;;;17.37;8.90;;;;;8.60;103357.00;;;;4995900;28;20263;-68
2021/12/18 00:19:27;;;;;;;22.60;9.23;;;;;8.60;103353.00;;;;4987281;28;20231;-69
2021/12/18 00:22:13;;;;;;;19.77;8.63;;;;;8.60;103350.00;;;;5001443;28;20234;-70
2021/12/18 00:24:59;;;;;;;18.50;8.63;;;;;8.50;103349.00;;;;4994564;28;20248;-70
2021/12/18 00:27:46;;;;;;;20.33;8.73;;;;;8.60;103346.00;;;;4990216;28;20628;-70
2021/12/18 00:30:36;;;;;;;17.67;8.90;;;;;8.60;103341.00;;;;4989430;28;20236;-68
2021/12/18 00:33:22;;;;;;;17.53;8.10;;;;;8.60;103339.00;;;;4985814;28;20225;-68
2021/12/18 00:36:08;;;;;;;15.97;8.17;;;;;8.60;103342.00;;;;5021345;28;20230;-69
2021/12/18 00:38:55;;;;;;;15.83;7.60;;;;;8.50;103335.00;;;;4999898;28;20293;-68
2021/12/18 00:41:59;;;;;;;18.07;8.17;;;;;8.60;103344.00;;;;5005956;28;20271;-69
2021/12/18 00:44:46;;;;;;;19.23;8.10;;;;;8.60;103337.00;;;;4992928;28;20506;-70
2021/12/18 00:47:33;;;;;;;14.63;7.43;;;;;8.50;103333.00;;;;4987505;28;20227;-69
2021/12/18 00:50:22;;;;;;;17.17;8.37;;;;;8.60;103343.00;;;;4995677;28;20718;-69
2021/12/18 00:53:08;;;;;;;20.20;8.83;;;;;8.60;103340.00;;;;5019419;28;20234;-70
2021/12/18 00:55:56;;;;;;;15.43;7.90;;;;;8.60;103341.00;;;;4983018;28;20277;-69
2021/12/18 00:58:43;;;;;;;14.30;7.40;;;;;8.60;103347.00;;;;4989198;28;20231;-69
2021/12/18 01:01:30;;;;;;;16.23;7.50;;;;;8.60;103331.00;;;;4986130;28;20257;-69
2021/12/18 01:04:18;;;;;;;18.83;8.13;;;;;8.70;103338.00;;;;5002589;28;20313;-68
2021/12/18 01:07:05;;;;;;;19.10;7.93;;;;;8.60;103343.00;;;;4999198;28;20225;-69
2021/12/18 01:10:01;;;;;;;18.03;7.97;;;;;8.60;103340.00;;;;4998958;28;20234;-69
2021/12/18 01:12:49;;;;;;;18.03;8.03;;;;;8.60;103352.00;;;;4983841;28;20223;-69
2021/12/18 01:15:41;;;;;;;16.37;7.90;;;;;8.60;103354.00;;;;5016429;28;20230;-69
2021/12/18 01:24:36;;;;;;;19.43;7.77;;;;;8.60;103352.00;;;;4986375;28;20788;-70
2021/12/18 01:27:23;;;;;;;16.60;7.77;;;;;8.70;103348.00;;;;4986477;28;20592;-70
2021/12/18 01:30:11;;;;;;;16.63;7.50;;;;;8.60;103344.00;;;;4988797;28;20593;-70
2021/12/18 01:32:58;;;;;;;19.10;7.43;;;;;8.70;103340.00;;;;4985620;28;20228;-69
2021/12/18 01:35:44;;;;;;;15.97;7.57;;;;;8.60;103345.00;;;;4992423;28;20601;-70
2021/12/18 01:38:32;;;;;;;21.50;7.83;;;;;8.70;103354.00;;;;4985180;28;20227;-70
2021/12/18 01:41:19;;;;;;;17.63;8.30;;;;;8.60;103345.00;;;;4986686;28;20232;-70
2021/12/18 01:51:14;;;;;;;17.07;7.10;;;;;8.60;103344.00;;;;4984629;28;21159;-71
2021/12/18 01:53:19;;;;;;;14.10;6.80;;;;;8.60;103352.00;;;;5005343;28;20272;-69
2021/12/18 01:56:08;;;;;;;17.23;7.50;;;;;8.60;103346.00;;;;5001465;28;20300;-70
2021/12/18 01:58:55;;;;;;;18.20;7.57;;;;;8.60;103347.00;;;;4997336;28;20231;-70
2021/12/18 02:01:42;;;;;;;22.57;7.80;;;;;8.60;103341.00;;;;4997497;28;20221;-69
2021/12/18 02:04:28;;;;;;;15.97;7.20;;;;;8.60;103350.00;;;;4997887;28;20227;-69
2021/12/18 02:07:15;;;;;;;18.33;7.77;;;;;8.60;103345.00;;;;4986894;28;20225;-70
2021/12/18 02:10:05;;;;;;;17.57;7.50;;;;;8.60;103343.00;;;;5003767;28;20844;-69
2021/12/18 02:12:58;;;;;;;17.33;7.53;;;;;8.60;103342.00;;;;4995349;28;20283;-69
2021/12/18 02:22:01;;;;;;;19.17;7.70;;;;;8.60;103312.00;;;;4983423;28;20291;-70
2021/12/18 02:24:47;;;;;;;17.70;7.83;;;;;8.60;103314.00;;;;4982037;28;20236;-70
2021/12/18 02:27:34;;;;;;;18.07;8.20;;;;;8.60;103310.00;;;;4984743;28;20739;-70
2021/12/18 02:30:21;;;;;;;19.43;8.10;;;;;8.60;103280.00;;;;4991897;28;20238;-69
2021/12/18 02:33:08;;;;;;;21.80;9.00;;;;;8.60;103320.00;;;;4992710;28;20305;-69
2021/12/18 02:35:58;;;;;;;24.37;9.30;;;;;8.60;103319.00;;;;4984538;28;20227;-70
2021/12/18 02:39:00;;;;;;;19.23;8.10;;;;;8.50;103321.00;;;;4987024;28;20222;-70
2021/12/18 02:41:56;;;;;;;21.87;8.67;;;;;8.50;103324.00;;;;4987010;28;20343;-70
2021/12/18 02:44:43;;;;;;;21.97;8.50;;;;;8.60;103332.00;;;;4994871;28;20749;-69
2021/12/18 02:47:30;;;;;;;18.60;7.93;;;;;8.50;103314.00;;;;4989036;28;20226;-69
2021/12/18 02:50:16;;;;;;;20.57;8.73;;;;;8.50;103316.00;;;;5015414;28;20323;-70
2021/12/18 02:53:05;;;;;;;18.83;8.10;;;;;8.50;103313.00;;;;4993913;28;20337;-69
2021/12/18 02:55:58;;;;;;;21.13;8.93;;;;;8.60;103313.00;;;;4994173;28;20223;-69
2021/12/18 02:58:48;;;;;;;19.30;8.43;;;;;8.50;103311.00;;;;4986844;28;20223;-70
2021/12/18 03:01:36;;;;;;;22.33;8.13;;;;;8.60;103304.00;;;;4988737;28;20310;-70
2021/12/18 03:04:27;;;;;;;16.23;7.50;;;;;8.50;103317.00;;;;5012937;28;20230;-70
2021/12/18 03:07:16;;;;;;;22.07;8.20;;;;;8.60;103309.00;;;;5004023;28;20231;-70
2021/12/18 03:22:58;;;;;;;17.30;7.57;;;;;8.50;103312.00;;;;4937009;28;20812;-68
2021/12/18 03:25:44;;;;;;;26.00;7.90;;;;;8.60;103302.00;;;;4983820;28;20228;-68
2021/12/18 03:28:32;;;;;;;18.03;7.97;;;;;8.50;103305.00;;;;4987990;28;20292;-70
2021/12/18 03:31:18;;;;;;;20.90;7.60;;;;;8.70;103295.00;;;;4992867;28;20273;-70
2021/12/18 03:34:05;;;;;;;21.03;7.97;;;;;8.50;103305.00;;;;4988066;28;20222;-69
2021/12/18 03:36:52;;;;;;;16.70;6.80;;;;;8.50;103297.00;;;;4985854;28;20226;-69
2021/12/18 03:39:38;;;;;;;21.40;8.40;;;;;8.50;103299.00;;;;5019229;28;20320;-69
2021/12/18 03:42:24;;;;;;;18.37;7.00;;;;;8.60;103293.00;;;;5011758;28;20230;-69
2021/12/18 03:45:13;;;;;;;19.40;7.50;;;;;8.60;103293.00;;;;5016700;28;20230;-69
2021/12/18 03:47:59;;;;;;;16.07;6.43;;;;;8.50;103290.00;;;;4985754;28;20355;-70
2021/12/18 03:50:46;;;;;;;21.47;7.97;;;;;8.50;103291.00;;;;4985499;28;20240;-67
2021/12/18 03:53:33;;;;;;;19.90;6.87;;;;;8.50;103287.00;;;;4993065;28;20228;-69
2021/12/18 03:56:19;;;;;;;18.37;7.00;;;;;8.60;103287.00;;;;4989619;28;20248;-69
2021/12/18 03:59:07;;;;;;;16.17;7.37;;;;;8.60;103292.00;;;;4988239;28;20228;-68
2021/12/18 04:01:55;;;;;;;18.87;7.33;;;;;8.60;103293.00;;;;4983819;28;20302;-69
2021/12/18 04:04:41;;;;;;;18.10;7.03;;;;;8.50;103284.00;;;;5005966;28;20320;-71
2021/12/18 04:07:28;;;;;;;18.33;6.50;;;;;8.60;103283.00;;;;4976361;28;20240;-69
2021/12/18 04:10:16;;;;;;;17.57;6.83;;;;;8.60;103287.00;;;;4989557;28;20321;-69
2021/12/18 04:13:03;;;;;;;20.07;7.00;;;;;8.60;103295.00;;;;4995658;28;20299;-68
2021/12/18 04:15:49;;;;;;;18.00;6.53;;;;;8.60;103290.00;;;;4992806;28;20862;-70
2021/12/18 04:18:37;;;;;;;17.07;6.70;;;;;8.60;103280.00;;;;4999325;28;20234;-69
2021/12/18 04:21:23;;;;;;;16.60;6.37;;;;;8.60;103279.00;;;;4980224;28;20346;-69
2021/12/18 04:24:09;;;;;;;19.47;6.63;;;;;8.50;103262.00;;;;4992218;28;20230;-68
2021/12/18 04:26:58;;;;;;;18.73;6.93;;;;;8.50;103281.00;;;;4997930;28;22504;-68
2021/12/18 04:29:44;;;;;;;18.17;6.70;;;;;8.60;103288.00;;;;4993990;28;20267;-69
2021/12/18 04:32:30;;;;;;;17.80;6.00;;;;;8.60;103289.00;;;;4995912;28;20231;-70
2021/12/18 04:35:18;;;;;;;15.83;6.60;;;;;8.60;103293.00;;;;5004310;28;20326;-69
2021/12/18 04:38:04;;;;;;;18.70;6.00;;;;;8.60;103297.00;;;;4997884;28;20306;-70
2021/12/18 04:40:51;;;;;;;16.40;6.07;;;;;8.60;103294.00;;;;4985223;28;20409;-70
2021/12/18 04:43:37;;;;;;;16.07;6.30;;;;;8.60;103299.00;;;;5020797;28;20394;-70
2021/12/18 04:46:24;;;;;;;19.07;7.00;;;;;8.60;103309.00;;;;4988942;28;20266;-69
2021/12/18 04:49:13;;;;;;;16.57;6.83;;;;;8.60;103295.00;;;;4985557;28;20228;-69
2021/12/18 04:52:02;;;;;;;18.20;6.90;;;;;8.70;103294.00;;;;4980123;28;20238;-69
2021/12/18 04:54:48;;;;;;;19.63;6.90;;;;;8.70;103296.00;;;;4983843;28;20413;-71
2021/12/18 04:57:34;;;;;;;19.07;6.83;;;;;8.70;103286.00;;;;4990251;28;20367;-69
2021/12/18 05:00:27;;;;;;;15.97;6.40;;;;;8.70;103298.00;;;;5003132;28;20301;-68
2021/12/18 05:03:17;;;;;;;15.77;6.23;;;;;8.70;103301.00;;;;4999763;28;20239;-69
2021/12/18 05:06:03;;;;;;;16.10;6.43;;;;;8.60;103291.00;;;;5003810;28;20236;-67
2021/12/18 05:08:51;;;;;;;17.80;6.67;;;;;8.70;103299.00;;;;4998749;28;20235;-69
2021/12/18 05:11:37;;;;;;;16.70;6.27;;;;;8.60;103296.00;;;;5013395;28;20314;-70
2021/12/18 05:14:23;;;;;;;14.00;5.97;;;;;8.60;103296.00;;;;5016422;28;20746;-70
2021/12/18 05:17:10;;;;;;;14.83;6.07;;;;;8.60;103300.00;;;;5016862;28;20250;-69
2021/12/18 05:19:56;;;;;;;16.20;5.80;;;;;8.60;103302.00;;;;5011251;28;20238;-69
2021/12/18 05:22:43;;;;;;;14.90;5.70;;;;;8.50;103304.00;;;;5024390;28;20231;-69
2021/12/18 05:25:30;;;;;;;17.17;5.67;;;;;8.50;103311.00;;;;5015363;28;20797;-71
2021/12/18 05:28:17;;;;;;;13.23;5.27;;;;;8.50;103313.00;;;;4990200;28;20746;-69
2021/12/18 05:31:03;;;;;;;13.23;5.73;;;;;8.50;103314.00;;;;5004532;28;20247;-69
2021/12/18 05:33:52;;;;;;;11.13;4.47;;;;;8.50;103314.00;;;;4985223;28;20647;-69
2021/12/18 05:37:11;;;;;;;9.60;4.37;;;;;8.50;103307.00;;;;5017430;28;20294;-69
2021/12/18 05:39:48;;;;;;;16.50;4.80;;;;;8.50;103287.00;;;;5010241;28;20715;-70
2021/12/18 05:42:35;;;;;;;11.00;4.73;;;;;8.50;103308.00;;;;5012100;28;20818;-67
2021/12/18 05:45:21;;;;;;;10.83;4.67;;;;;8.50;103309.00;;;;4988717;28;20245;-69
2021/12/18 05:48:08;;;;;;;13.23;5.00;;;;;8.50;103308.00;;;;5013931;28;20289;-70
2021/12/18 05:50:54;;;;;;;11.00;4.90;;;;;8.50;103309.00;;;;4986563;28;20241;-70
2021/12/18 05:53:40;;;;;;;12.13;4.50;;;;;8.40;103304.00;;;;4994735;28;20305;-69
2021/12/18 05:56:27;;;;;;;10.33;4.33;;;;;8.40;103302.00;;;;4984070;28;20594;-69
2021/12/18 05:59:14;;;;;;;9.97;4.40;;;;;8.50;103303.00;;;;5012438;28;20229;-69
2021/12/18 06:02:01;;;;;;;13.53;5.20;;;;;8.50;103291.00;;;;4991722;28;20230;-69
2021/12/18 06:04:47;;;;;;;10.03;3.93;;;;;8.50;103301.00;;;;5020390;28;20230;-70
2021/12/18 06:07:43;;;;;;;10.50;3.50;;;;;8.40;103304.00;;;;4998890;28;20614;-70
2021/12/18 06:10:33;;;;;;;8.63;4.07;;;;;8.40;103298.00;;;;4992310;28;20236;-70
2021/12/18 06:13:19;;;;;;;8.10;3.93;;;;;8.50;103293.00;;;;5008931;28;20259;-69
2021/12/18 06:16:07;;;;;;;8.23;4.00;;;;;8.50;103300.00;;;;4992936;28;20316;-71
2021/12/18 06:18:53;;;;;;;7.77;3.83;;;;;8.50;103287.00;;;;5001873;28;20312;-70
2021/12/18 06:21:39;;;;;;;8.10;3.80;;;;;8.50;103294.00;;;;5008031;28;20317;-71
2021/12/18 06:24:28;;;;;;;6.83;3.23;;;;;8.40;103295.00;;;;5008884;28;20273;-69
2021/12/18 06:27:15;;;;;;;8.37;3.80;;;;;8.50;103296.00;;;;5004736;28;20297;-70
2021/12/18 06:30:01;;;;;;;8.83;3.53;;;;;8.50;103293.00;;;;4985875;28;20242;-70
2021/12/18 06:32:49;;;;;;;6.83;3.13;;;;;8.50;103293.00;;;;4987258;28;20266;-70
2021/12/18 06:35:36;;;;;;;7.07;2.83;;;;;8.40;103304.00;;;;5011602;28;20302;-69
2021/12/18 06:38:23;;;;;;;5.60;2.83;;;;;8.50;103303.00;;;;4989859;28;20236;-69
2021/12/18 06:41:09;;;;;;;6.10;2.83;;;;;8.40;103304.00;;;;5005219;28;20722;-70
2021/12/18 06:43:55;;;;;;;6.17;2.80;;;;;8.30;103311.00;;;;5002473;28;20223;-70
2021/12/18 06:46:41;;;;;;;5.27;2.80;;;;;8.30;103316.00;;;;5011327;28;20269;-69
2021/12/18 06:49:29;;;;;;;4.53;2.30;;;;;8.30;103316.00;;;;5000131;28;20231;-70
2021/12/18 06:52:15;;;;;;;6.03;2.93;;;;;8.30;103322.00;;;;5014716;28;20725;-68
2021/12/18 06:55:02;;;;;;;6.73;2.90;;;;;8.30;103320.00;;;;5012639;28;20716;-69
2021/12/18 06:57:48;;;;;;;5.27;2.70;;;;;8.20;103317.00;;;;5007600;28;20715;-69
2021/12/18 07:00:34;;;;;;;8.40;3.07;;;;;8.30;103310.00;;;;5017899;28;20234;-69
2021/12/18 07:03:21;;;;;;;5.17;2.97;;;;;8.30;103319.00;;;;5001485;28;20238;-70
2021/12/18 07:06:09;;;;;;;6.43;3.13;;;;;8.30;103311.00;;;;5017347;28;20245;-70
2021/12/18 07:08:55;;;;;;;7.63;3.30;;;;;8.30;103316.00;;;;5012426;28;20303;-69
2021/12/18 07:11:44;;;;;;;6.83;3.27;;;;;8.30;103305.00;;;;5016755;28;20356;-69
2021/12/18 07:14:30;;;;;;;7.27;2.97;;;;;8.30;103305.00;;;;5017294;28;20308;-71
2021/12/18 07:17:16;;;;;;;7.20;3.27;;;;;8.30;103302.00;;;;5011974;28;20238;-70
2021/12/18 07:20:04;;;;;;;9.90;3.10;;;;;8.30;103297.00;;;;5014245;28;20377;-69
2021/12/18 07:22:51;;;;;;;7.27;2.60;;;;;8.30;103298.00;;;;5006403;28;20225;-69
2021/12/18 07:25:38;;;;;;;6.73;3.00;;;;;8.30;103303.00;;;;4995034;28;21730;-67
2021/12/18 07:28:24;;;;;;;8.30;3.00;;;;;8.30;103307.00;;;;4988129;28;20804;-70
2021/12/18 07:31:10;;;;;;;5.80;2.70;;;;;8.20;103321.00;;;;5013020;28;20310;-69
2021/12/18 07:33:56;;;;;;;5.60;2.67;;;;;8.30;103310.00;;;;5000384;28;20225;-69
2021/12/18 07:36:44;;;;;;;7.07;3.57;;;;;8.30;103307.00;;;;4986437;28;20278;-69
2021/12/18 07:39:31;;;;;;;8.07;3.00;;;;;8.30;103310.00;;;;4986084;28;20250;-70
2021/12/18 07:42:18;;;;;;;7.53;2.97;;;;;8.30;103312.00;;;;4985252;28;20230;-70
2021/12/18 07:45:06;;;;;;;7.07;3.07;;;;;8.30;103311.00;;;;4981489;28;20230;-69
2021/12/18 07:47:52;;;;;;;7.07;2.50;;;;;8.40;103308.00;;;;4991850;28;20305;-69
2021/12/18 07:50:38;;;;;;;8.40;2.60;;;;;8.30;103317.00;;;;5017082;28;20421;-70
2021/12/18 07:53:25;;;;;;;9.40;3.40;;;;;8.20;103315.00;;;;4987723;28;20246;-69
2021/12/18 07:56:12;;;;;;;6.30;2.77;;;;;8.30;103315.00;;;;5006526;28;20236;-69
2021/12/18 07:58:58;;;;;;;4.50;2.50;;;;;8.40;103321.00;;;;4980535;28;20658;-71
2021/12/18 08:01:45;;;;;;;4.27;2.93;;;;;8.30;103317.00;;;;4986322;28;20277;-70
2021/12/18 08:04:32;;;;;;;4.40;2.70;;;;;8.40;103317.00;;;;4996536;28;20294;-70
2021/12/18 08:07:18;;;;;;;5.67;2.60;;;;;8.20;103306.00;;;;5016877;28;20301;-69
2021/12/18 08:10:06;;;;;;;4.37;2.50;;;;;8.20;103319.00;;;;4989667;28;20378;-69
2021/12/18 08:12:53;;;;;;;4.07;2.37;;;;;8.20;103306.00;;;;4979579;28;20314;-69
2021/12/18 08:15:40;;;;;;;3.57;2.13;;;;;8.20;103315.00;;;;5010071;28;20233;-67
2021/12/18 08:18:27;;;;;;;6.37;3.50;;;;;8.20;103317.00;;;;4986238;28;20233;-69
2021/12/18 08:21:14;;;;;;;6.67;3.40;;;;;8.20;103316.00;;;;4992927;28;20284;-68
2021/12/18 08:24:00;;;;;;;4.97;2.33;;;;;8.10;103323.00;;;;5008531;28;20233;-70
2021/12/18 08:26:47;;;;;;;4.53;2.50;;;;;8.20;103318.00;;;;5001420;28;20606;-68
2021/12/18 08:29:34;;;;;;;4.77;2.43;;;;;8.20;103324.00;;;;5014261;28;20717;-68
2021/12/18 08:32:22;;;;;;;3.30;2.00;;;;;8.10;103315.00;;;;5002945;28;20250;-69
2021/12/18 08:35:09;;;;;;;4.00;2.07;;;;;8.00;103326.00;;;;5005973;28;20230;-69
2021/12/18 08:37:57;;;;;;;3.10;2.00;;;;;8.00;103314.00;;;;4977465;28;20250;-68
2021/12/18 08:40:43;;;;;;;5.07;2.03;;;;;8.00;103315.00;;;;4987887;28;20231;-68
2021/12/18 08:43:29;;;;;;;3.13;1.77;;;;;8.00;103316.00;;;;4974833;28;21020;-69
2021/12/18 08:46:17;;;;;;;4.00;1.70;;;;;8.00;103304.00;;;;4976525;28;20280;-69
2021/12/18 08:49:04;;;;;;;3.23;2.07;;;;;7.90;103314.00;;;;4988758;28;20651;-68
2021/12/18 08:51:50;;;;;;;5.33;1.93;;;;;8.00;103319.00;;;;4983838;28;20242;-68
2021/12/18 08:54:36;;;;;;;3.50;1.60;;;;;8.10;103318.00;;;;4990875;28;20243;-68
2021/12/18 08:57:27;;;;;;;2.80;1.50;;;;;8.10;103316.00;;;;5009348;28;20237;-68
2021/12/18 09:00:16;;;;;;;3.10;2.00;;;;;8.00;103314.00;;;;5005890;28;20362;-69
2021/12/18 09:03:04;;;;;;;2.57;1.70;;;;;8.00;103320.00;;;;4992497;28;20234;-69
2021/12/18 09:05:51;;;;;;;2.37;1.50;;;;;8.00;103310.00;;;;4989057;28;20235;-69
2021/12/18 09:08:38;;;;;;;2.60;1.70;;;;;8.00;103314.00;;;;5012699;28;20276;-69
2021/12/18 09:11:24;;;;;;;3.87;1.60;;;;;8.00;103315.00;;;;4989623;28;20370;-68
2021/12/18 09:14:11;;;;;;;3.00;1.63;;;;;8.00;103315.00;;;;5005352;28;20369;-70
2021/12/18 09:16:57;;;;;;;5.70;2.70;;;;;8.10;103316.00;;;;4984500;28;20246;-69
2021/12/18 09:19:45;;;;;;;4.23;2.40;;;;;8.10;103321.00;;;;4996912;28;20225;-70
2021/12/18 09:22:31;;;;;;;3.23;2.00;;;;;8.00;103319.00;;;;5019111;28;20238;-69
2021/12/18 09:25:18;;;;;;;3.07;1.73;;;;;8.00;103306.00;;;;5011286;28;20360;-69
2021/12/18 09:28:05;;;;;;;2.70;1.70;;;;;8.10;103303.00;;;;5016050;28;20341;-70
2021/12/18 09:30:52;;;;;;;3.07;1.87;;;;;8.00;103308.00;;;;5004320;28;20768;-69
2021/12/18 09:33:38;;;;;;;2.20;1.50;;;;;8.00;103324.00;;;;5024273;28;20246;-69
2021/12/18 09:36:26;;;;;;;3.47;1.97;;;;;8.00;103318.00;;;;5011911;28;20258;-68
2021/12/18 09:39:13;;;;;;;3.07;1.83;;;;;8.10;103315.00;;;;5017626;28;20284;-70
2021/12/18 09:41:59;;;;;;;4.90;2.80;;;;;8.00;103323.00;;;;5012222;28;20245;-69
2021/12/18 09:44:49;;;;;;;3.33;2.03;;;;;8.00;103309.00;;;;5001650;28;20226;-67
2021/12/18 09:47:35;;;;;;;3.83;2.40;;;;;8.10;103311.00;;;;5012845;28;20799;-68
2021/12/18 09:50:25;;;;;;;4.30;2.30;;;;;8.00;103308.00;;;;5018187;28;20610;-68
2021/12/18 09:53:14;;;;;;;2.47;1.70;;;;;8.00;103316.00;;;;4989527;28;20242;-69
2021/12/18 09:56:00;;;;;;;4.53;2.10;;;;;8.10;103311.00;;;;4983921;28;20278;-68
2021/12/18 09:58:46;;;;;;;4.63;2.07;;;;;8.00;103310.00;;;;4999021;28;20601;-71
2021/12/18 10:01:34;;;;;;;3.03;1.87;;;;;8.20;103317.00;;;;5019681;28;20241;-70
2021/12/18 10:04:29;;;;;;;2.27;1.60;;;;;8.10;103307.00;;;;4993077;28;20227;-69
2021/12/18 10:07:17;;;;;;;2.57;1.70;;;;;8.20;103304.00;;;;4987671;28;20748;-68
2021/12/18 10:10:11;;;;;;;2.80;1.50;;;;;8.10;103302.00;;;;4986067;28;20242;-68
2021/12/18 10:13:03;;;;;;;4.30;2.00;;;;;8.10;103301.00;;;;4984356;28;21357;-69
2021/12/18 10:16:07;;;;;;;3.77;1.67;;;;;8.20;103299.00;;;;4981641;28;20255;-69
2021/12/18 10:18:55;;;;;;;14.37;6.97;;;;;8.10;103291.00;;;;4988457;28;20731;-68
2021/12/18 10:21:56;;;;;;;5.93;3.67;;;;;8.10;103295.00;;;;4995158;28;20362;-69
2021/12/18 10:24:46;;;;;;;1.87;1.40;;;;;8.10;103297.00;;;;5019630;28;20358;-69
2021/12/18 10:27:36;;;;;;;2.30;1.53;;;;;8.10;103297.00;;;;5014372;28;20262;-68
2021/12/18 10:30:23;;;;;;;1.63;1.17;;;;;8.20;103291.00;;;;5019151;28;20815;-68
2021/12/18 10:33:11;;;;;;;2.00;1.30;;;;;8.20;103291.00;;;;5016104;28;20241;-66
2021/12/18 10:36:00;;;;;;;2.40;1.30;;;;;8.20;103287.00;;;;4987818;28;20246;-65
2021/12/18 10:38:49;;;;;;;2.13;1.50;;;;;8.20;103278.00;;;;4986870;28;24473;-70
2021/12/18 10:41:37;;;;;;;1.83;1.40;;;;;8.10;103281.00;;;;4990046;28;20225;-70
2021/12/18 10:44:24;;;;;;;2.30;1.47;;;;;8.10;103283.00;;;;4989656;28;20677;-70
2021/12/18 10:47:10;;;;;;;2.30;1.70;;;;;8.10;103275.00;;;;4985983;28;20235;-69
2021/12/18 10:49:56;;;;;;;2.13;1.70;;;;;8.10;103275.00;;;;4979302;28;20286;-70
2021/12/18 10:52:43;;;;;;;1.90;1.23;;;;;8.10;103278.00;;;;5011987;28;20225;-69
2021/12/18 10:55:33;;;;;;;1.73;1.50;;;;;8.00;103272.00;;;;4983030;28;20371;-69
2021/12/18 10:58:21;;;;;;;2.83;1.90;;;;;8.10;103278.00;;;;4996326;28;20714;-69
2021/12/18 11:01:11;;;;;;;3.70;2.40;;;;;8.10;103266.00;;;;5007529;28;20318;-72
2021/12/18 11:03:57;;;;;;;3.30;2.17;;;;;8.20;103281.00;;;;5002154;28;20229;-70
2021/12/18 11:06:44;;;;;;;2.77;1.80;;;;;8.10;103265.00;;;;4986839;28;20230;-70
2021/12/18 11:09:34;;;;;;;3.67;2.00;;;;;8.00;103271.00;;;;4987902;28;20714;-70
2021/12/18 11:15:25;;;;;;;2.40;1.80;;;;;8.10;103258.00;;;;5007669;28;20239;-69
2021/12/18 11:18:12;;;;;;;2.77;2.00;;;;;8.10;103267.00;;;;5015620;28;20229;-69
2021/12/18 11:20:59;;;;;;;2.77;1.93;;;;;8.10;103266.00;;;;4986930;28;20869;-70
2021/12/18 11:23:50;;;;;;;2.40;1.83;;;;;8.10;103260.00;;;;4979383;28;20227;-70
2021/12/18 11:26:41;;;;;;;2.67;2.03;;;;;8.10;103273.00;;;;4992042;28;20236;-69
2021/12/18 11:29:34;;;;;;;3.00;1.87;;;;;8.20;103264.00;;;;5014877;28;20237;-68
2021/12/18 11:32:23;;;;;;;2.40;1.73;;;;;8.10;103254.00;;;;5005152;28;20238;-68
2021/12/18 11:35:13;;;;;;;3.17;2.07;;;;;8.10;103244.00;;;;4999514;28;20246;-70
2021/12/18 11:38:02;;;;;;;3.07;1.87;;;;;8.10;103250.00;;;;5007891;28;20234;-70
2021/12/18 11:40:51;;;;;;;3.00;2.37;;;;;8.10;103247.00;;;;5019510;28;20292;-72
2021/12/18 11:43:41;;;;;;;3.77;2.00;;;;;8.10;103246.00;;;;5003862;28;20230;-70
2021/12/18 11:46:30;;;;;;;3.33;2.23;;;;;8.20;103238.00;;;;5015455;28;20237;-68
2021/12/18 11:49:16;;;;;;;2.53;2.10;;;;;8.10;103243.00;;;;4996857;28;20231;-70
2021/12/18 11:52:05;;;;;;;3.37;2.50;;;;;8.10;103240.00;;;;4980713;28;20246;-70
2021/12/18 11:54:54;;;;;;;4.73;2.57;;;;;8.10;103226.00;;;;4999658;28;20237;-68
2021/12/18 11:57:48;;;;;;;5.33;3.60;;;;;8.20;103225.00;;;;4978746;28;20230;-68
2021/12/18 12:00:38;;;;;;;3.20;2.50;;;;;8.30;103228.00;;;;4991797;28;20257;-69
2021/12/18 12:03:30;;;;;;;5.40;2.87;;;;;8.10;103229.00;;;;4975982;28;20755;-70
2021/12/18 12:06:27;;;;;;;10.77;5.70;;;;;8.10;103229.00;;;;4984619;28;20230;-71
2021/12/18 12:09:25;;;;;;;5.90;3.23;;;;;8.10;103221.00;;;;4991827;28;20230;-71
2021/12/18 12:12:13;;;;;;;4.63;3.30;;;;;8.10;103232.00;;;;5001624;28;20363;-71
2021/12/18 12:15:14;;;;;;;6.87;2.70;;;;;8.20;103220.00;;;;4984168;28;20237;-71
2021/12/18 12:18:01;;;;;;;3.77;2.60;;;;;8.00;103224.00;;;;4985506;28;20835;-70
2021/12/18 12:20:50;;;;;;;3.47;2.47;;;;;8.00;103220.00;;;;4984921;28;20650;-70
2021/12/18 12:24:01;;;;;;;4.57;2.70;;;;;8.00;103223.00;;;;4986681;28;20235;-70
2021/12/18 12:26:49;;;;;;;4.33;2.90;;;;;8.00;103200.00;;;;4995785;28;20786;-70
2021/12/18 12:29:46;;;;;;;3.27;2.60;;;;;8.00;103213.00;;;;5006661;28;20717;-68
2021/12/18 12:32:32;;;;;;;4.70;3.73;;;;;8.20;103206.00;;;;5005932;28;20230;-70
2021/12/18 12:35:19;;;;;;;3.80;2.70;;;;;8.10;103217.00;;;;5007371;28;20245;-69
2021/12/18 12:38:22;;;;;;;2.90;2.40;;;;;8.00;103209.00;;;;5011301;28;20225;-66
2021/12/18 12:41:27;;;;;;;3.00;2.33;;;;;8.00;103209.00;;;;5005543;28;20946;-70
2021/12/18 12:44:47;;;;;;;2.93;2.40;;;;;7.90;103209.00;;;;4985989;28;20242;-71
2021/12/18 12:47:34;;;;;;;10.33;2.50;;;;;7.90;103221.00;;;;4988895;28;20231;-70
2021/12/18 12:50:29;;;;;;;4.40;2.90;;;;;7.80;103214.00;;;;5012199;28;20233;-68
2021/12/18 12:53:19;;;;;;;4.77;2.90;;;;;8.00;103212.00;;;;5007040;28;20377;-70
2021/12/18 12:56:15;;;;;;;3.70;2.67;;;;;7.80;103197.00;;;;5010561;28;20311;-70
2021/12/18 12:59:23;;;;;;;4.63;3.13;;;;;7.90;103206.00;;;;4999962;28;20600;-67
2021/12/18 13:02:09;;;;;;;4.27;3.07;;;;;7.90;103211.00;;;;4996464;28;20753;-70
2021/12/18 13:05:01;;;;;;;5.00;2.97;;;;;7.90;103194.00;;;;5000111;28;20228;-70
2021/12/18 13:07:48;;;;;;;4.03;3.00;;;;;7.80;103166.00;;;;5001509;28;20250;-70
2021/12/18 13:10:38;;;;;;;4.43;3.00;;;;;7.70;103189.00;;;;5006075;28;20237;-69
2021/12/18 13:13:29;;;;;;;4.30;2.50;;;;;7.80;103196.00;;;;5003084;28;20651;-69
2021/12/18 13:16:18;;;;;;;3.53;2.40;;;;;7.80;103194.00;;;;5005833;28;20617;-70
2021/12/18 13:19:04;;;;;;;3.30;2.30;;;;;7.80;103187.00;;;;5000877;28;20355;-69
2021/12/18 13:21:50;;;;;;;3.80;2.93;;;;;7.80;103185.00;;;;4997468;28;20373;-70
2021/12/18 13:24:36;;;;;;;6.67;3.83;;;;;7.90;103185.00;;;;5005952;28;20397;-69
2021/12/18 13:27:22;;;;;;;6.43;4.00;;;;;7.80;103189.00;;;;5003210;28;20234;-72
2021/12/18 13:30:14;;;;;;;4.17;2.93;;;;;7.90;103188.00;;;;5003292;28;20243;-70
2021/12/18 13:33:04;;;;;;;5.87;4.00;;;;;7.90;103189.00;;;;4972423;28;20283;-70
2021/12/18 13:35:56;;;;;;;5.23;2.90;;;;;7.80;103188.00;;;;4976593;28;20605;-70
2021/12/18 13:38:44;;;;;;;4.20;2.43;;;;;7.80;103182.00;;;;4987732;28;20234;-71
2021/12/18 13:41:30;;;;;;;3.00;2.13;;;;;7.80;103169.00;;;;4989633;28;20251;-70
2021/12/18 13:44:16;;;;;;;3.73;2.83;;;;;7.90;103172.00;;;;4986527;28;20247;-70
2021/12/18 13:47:13;;;;;;;4.57;2.83;;;;;7.90;103166.00;;;;4991629;28;20290;-69
2021/12/18 13:50:08;;;;;;;3.27;2.47;;;;;7.90;103164.00;;;;4979024;28;20318;-69
2021/12/18 13:52:59;;;;;;;3.17;2.43;;;;;7.80;103164.00;;;;4989793;28;20799;-70
2021/12/18 13:55:51;;;;;;;2.83;2.20;;;;;8.00;103163.00;;;;5002923;28;20624;-69
2021/12/18 13:58:38;;;;;;;3.23;2.00;;;;;7.90;103142.00;;;;5007804;28;20229;-70
2021/12/18 14:01:26;;;;;;;2.83;2.20;;;;;7.90;103154.00;;;;4997833;28;20238;-69
2021/12/18 14:04:15;;;;;;;14.57;7.97;;;;;7.90;103138.00;;;;5004286;28;20234;-71
2021/12/18 14:07:18;;;;;;;2.43;2.10;;;;;7.90;103145.00;;;;5005055;28;20229;-69
2021/12/18 14:10:07;;;;;;;2.67;1.90;;;;;7.90;103139.00;;;;5008214;28;20238;-69
2021/12/18 14:12:54;;;;;;;2.20;1.87;;;;;7.90;103141.00;;;;4999489;28;20612;-69
2021/12/18 14:15:40;;;;;;;3.10;1.97;;;;;7.90;103137.00;;;;5000926;28;20841;-70
2021/12/18 14:18:32;;;;;;;3.23;2.17;;;;;7.90;103136.00;;;;5004420;28;20242;-70
2021/12/18 14:21:19;;;;;;;2.50;2.07;;;;;7.90;103144.00;;;;5007804;28;20242;-70
2021/12/18 14:24:08;;;;;;;3.80;2.43;;;;;7.80;103143.00;;;;4995157;28;20234;-68
2021/12/18 14:26:57;;;;;;;2.47;2.10;;;;;7.80;103146.00;;;;4984943;28;20710;-66
2021/12/18 14:29:50;;;;;;;3.03;2.10;;;;;7.80;103140.00;;;;4995950;28;20610;-70
2021/12/18 14:32:36;;;;;;;3.17;2.53;;;;;7.80;103134.00;;;;5002012;28;20230;-69
2021/12/18 14:35:22;;;;;;;3.27;2.40;;;;;7.80;103138.00;;;;4984571;28;20255;-70